This is the latest recevied weather packets stored in our database for station/object SQ7ACP-3. If no packets are shown the sender has not sent any weather packets the latest 10 day(s).
| Time | Temp. | Humidity | Pressure | Rain* | Wind** | Luminosity | Snow |
|---|---|---|---|---|---|---|---|
| 1777882077 | 20.56° C | 39% | 1013.6 hPa | 0 mm | - | - | - |
| 1777881465 | 20° C | 39% | 1013.8 hPa | 0 mm | - | - | - |
| 1777880865 | 20° C | 40% | 1013.7 hPa | 0 mm | - | - | - |
| 1777880252 | 19.44° C | 40% | 1013.7 hPa | 0 mm | - | - | - |
| 1777879027 | 18.89° C | 40% | 1013.7 hPa | 0 mm | - | - | - |
| 1777878418 | 18.89° C | 40% | 1013.6 hPa | 0 mm | - | - | - |
| 1777877802 | 18.89° C | 40% | 1013.6 hPa | 0 mm | - | - | - |
| 1777877190 | 18.33° C | 41% | 1013.6 hPa | 0 mm | - | - | - |
| 1777876589 | 18.33° C | 42% | 1013.6 hPa | 0 mm | - | - | - |
| 1777875977 | 17.78° C | 42% | 1013.6 hPa | 0 mm | - | - | - |
| 1777875377 | 17.22° C | 44% | 1013.5 hPa | 0 mm | - | - | - |
| 1777874764 | 16.11° C | 45% | 1013.6 hPa | 0 mm | - | - | - |
| 1777874152 | 15.56° C | 47% | 1013.6 hPa | 0 mm | - | - | - |
| 1777873539 | 15° C | 49% | 1013.6 hPa | 0 mm | - | - | - |
| 1777872939 | 14.44° C | 51% | 1013.5 hPa | 0 mm | - | - | - |
| 1777872327 | 13.89° C | 54% | 1013.7 hPa | 0 mm | - | - | - |
| 1777871715 | 13.33° C | 55% | 1013.7 hPa | 0 mm | - | - | - |
| 1777871102 | 12.22° C | 59% | 1013.8 hPa | 0 mm | - | - | - |
| 1777870490 | 10.56° C | 66% | 1013.7 hPa | 0 mm | - | - | - |
| 1777869877 | 8.89° C | 77% | 1013.7 hPa | 0 mm | - | - | - |
| 1777869264 | 8.33° C | 77% | 1013.6 hPa | 0 mm | - | - | - |
| 1777868655 | 7.78° C | 80% | 1013.5 hPa | 0 mm | - | - | - |
| 1777868039 | 7.22° C | 81% | 1013.5 hPa | 0 mm | - | - | - |
| 1777867427 | 7.22° C | 81% | 1013.5 hPa | 0 mm | - | - | - |
| 1777866814 | 7.22° C | 82% | 1013.4 hPa | 0 mm | - | - | - |
* Rain latest hour (hover to see other rain measurements)
** Current wind speed in m/s (hover to see current wind gust speed)